AirNav   Bose ProFlight Series 2 Headset
 
 1477 users online  

AL08 Perdido Winds Airpark
Elberta, Alabama, USA

GOING TO ELBERTA?


FAA INFORMATION EFFECTIVE 30 JANUARY 2020

Location

FAA Identifier: AL08
Lat/Long: 30-25-30.0300N 087-32-12.1400W
30-25.500500N 087-32.202333W
30.4250083,-87.5367056
(estimated)
Elevation: 75 ft. / 23 m (estimated)
Variation: 00E (1995)
From city: 3 miles ENE of ELBERTA, AL
Time zone: UTC -6 (UTC -5 during Daylight Saving Time)
Zip code: 36530

Airport Operations

Airport use: Private use. Permission required prior to landing
Activation date: 02/2000
Control tower: no
ARTCC: JACKSONVILLE CENTER
FSS: ANNISTON FLIGHT SERVICE STATION
Attendance: UNATNDD
Wind indicator: yes
Segmented circle: no

Airport Communications

WX AWOS-3PT at JKA (11 nm SW): 134.525 (251-968-7581)
WX AWOS-3PT at CQF (18 nm W): 118.425 (251-928-3242)
WX ASOS at PNS (18 nm E): PHONE 850-436-4799

Nearby radio navigation aids

VOR radial/distance  VOR name  Freq  Var
NUNr254/(10.8)SAUFLEY VOR108.8001E
BFMr109/29.1BROOKLEY VORTAC112.8004E

 
NDB name  Hdg/Dist  Freq  Var  ID
PICKENS270/18.632602WPKZ .--. -.- --..

Airport Services

Runway Information

Runway 17/35

Dimensions: 3100 x 100 ft. / 945 x 30 m
Surface: turf
Runway edge markings: DSPLCD THLD MKD WITH 24 INCH CONCRETE DISKS
RUNWAY 17  RUNWAY 35
Traffic pattern: leftleft
Displaced threshold: 858 ft.947 ft.
Markings: basic
Obstructions: 30 ft. trees, 700 ft. from runway35 ft. trees, 100 ft. from runway

Airport Ownership and Management from official FAA records

Ownership: Privately-owned
Owner: BROWN HAWK LANDING, LLC
10100 AILERON AVE
PENSACOLA, FL 32506-0100
Phone 850-455-0971
Manager: ANSELL & BROWN AVIATION LLC
9750 AILERON AVE
PENSACOLA, FL 32506
Phone (850) 453-4181

Airport Operational Statistics

Aircraft based on the field: 1
Single engine airplanes: 1
    

Additional Remarks

PRCHT OPS WILL CMNC AS OF MARCH 2016
FOR CD CTC PENSACOLA APCH AT 850-266-6884 OR 850-266-6885.

Instrument Procedures

There are no published instrument procedures at AL08.

Some nearby airports with instrument procedures:

5R4 - Foley Municipal Airport (8 nm W)
KJKA - Jack Edwards National Airport (11 nm SW)
KNPA - Pensacola Naval Air Station/Forrest Sherman Field (12 nm E)
KCQF - H L Sonny Callahan Airport (18 nm W)
KPNS - Pensacola International Airport (18 nm E)
 
Loc | Ops | Rwys | IFR | FBO | Links
Com | Nav | Svcs | Stats | Notes

Continental Services
AirBoss

 
Area around AL08 (Perdido Winds Airpark)
 
Road maps at: MapQuest Bing Google
 
Aerial photo
No photo
 
Sectional chart

 
Airport distance calculator
Flying to Perdido Winds Airpark? Find the distance to fly.

From to AL08

Sunrise and sunset
Times for 24-Feb-2020
 Local
(UTC-6)
 Zulu
(UTC)
Morning civil twilight05:5911:59
Sunrise06:2312:23
Sunset17:4423:44
Evening civil twilight18:0800:08

Current date and time
Zulu (UTC)  24-Feb-2020 18:03:55
Local (UTC-6)  24-Feb-2020 12:03:55
 
METAR
KJKA 
11nm SW 
241755Z AUTO 17008G17KT 130V190 10SM SCT049 BKN060 OVC075 21/18 A2993 RMK AO2 T02050179 10226 20131
KNPA 
12nm E 
241656Z 17013KT 10SM SCT025 BKN050 BKN250 21/17 A2995 RMK AO2 SLP143 T02110172
KCQF 
18nm W 
241755Z AUTO 16014G19KT 10SM BKN060 OVC080 21/17 A2992 RMK AO2
KPNS 
19nm E 
241753Z 18013KT 10SM SCT047 BKN055 OVC080 22/18 A2992 RMK AO2 SLP135 60002 T02170178 10233 20150 58019
TAF
KNPA 
12nm E 
2407/2507 13010KT 9999 BKN085 QNH2998INS BECMG 2410/2412 12010KT 9999 VCSH BKN030 OVC090 QNH2995INS FM250200 23010KT 6000 SHRA BKN020 BKN030 OVC070 QNH2980INS AUTOMATED SENSOR METWATCH 2407 TIL 2411 T12/2405Z T18/2420Z FN00085
KPNS 
19nm E 
241120Z 2412/2512 12006KT P6SM VCSH BKN025 OVC050 TEMPO 2412/2416 4SM -RA OVC020 FM241600 18011KT P6SM -SHRA OVC020 FM250300 20010KT 5SM BR OVC009
NOTAMs
Click for the latest NOTAMs
NOTAMs are issued by the DoD/FAA and will open in a separate window not controlled by AirNav.

 

 
 

Would you like to see your business listed on this page?

 If your business provides an interesting product or service to pilots, flight crews, aircraft, or users of the Perdido Winds Airpark, you should consider listing it here.  To start the listing process, click on the button below
 
Add a business
 

Other Pages about Perdido Winds Airpark

Update a link
 
Copyright © AirNav, LLC. All rights reserved. Privacy Policy  Contact